sensor_id;sensor_type;location;lat;lon;timestamp;P1;P4;P2;P0;N10;N4;N25;N1;N05;TS
82350;SPS30;71951;39.366;22.950;2023-12-07T07:59:20;30;;29;;;;;;;
82350;SPS30;71951;39.366;22.950;2023-12-07T08:02:47;30;;30;;;;;;;
82350;SPS30;71951;39.366;22.950;2023-12-07T08:06:13;25;;25;;;;;;;
82350;SPS30;71951;39.366;22.950;2023-12-07T08:09:40;22;;21;;;;;;;
82350;SPS30;71951;39.366;22.950;2023-12-07T08:13:06;20;;19;;;;;;;
82350;SPS30;71951;39.366;22.950;2023-12-07T08:16:33;21;;21;;;;;;;
82350;SPS30;71951;39.366;22.950;2023-12-07T08:20:00;23;;23;;;;;;;
82350;SPS30;71951;39.366;22.950;2023-12-07T08:23:26;25;;25;;;;;;;
82350;SPS30;71951;39.366;22.950;2023-12-07T08:26:52;24;;24;;;;;;;
82350;SPS30;71951;39.366;22.950;2023-12-07T08:30:19;23;;22;;;;;;;
82350;SPS30;71951;39.366;22.950;2023-12-07T08:33:46;26;;26;;;;;;;
82350;SPS30;71951;39.366;22.950;2023-12-07T08:37:12;25;;24;;;;;;;
82350;SPS30;71951;39.366;22.950;2023-12-07T08:40:39;26;;25;;;;;;;
82350;SPS30;71951;39.366;22.950;2023-12-07T08:44:05;22;;21;;;;;;;
82350;SPS30;71951;39.366;22.950;2023-12-07T08:47:33;21;;20;;;;;;;
82350;SPS30;71951;39.366;22.950;2023-12-07T08:51:00;21;;21;;;;;;;
82350;SPS30;71951;39.366;22.950;2023-12-07T08:54:26;26;;25;;;;;;;
82350;SPS30;71951;39.366;22.950;2023-12-07T08:57:53;21;;21;;;;;;;
82350;SPS30;71951;39.366;22.950;2023-12-07T09:01:20;23;;23;;;;;;;
82350;SPS30;71951;39.366;22.950;2023-12-07T09:04:46;23;;23;;;;;;;
82350;SPS30;71951;39.366;22.950;2023-12-07T09:08:13;25;;24;;;;;;;
82350;SPS30;71951;39.366;22.950;2023-12-07T09:11:39;22;;21;;;;;;;
82350;SPS30;71951;39.366;22.950;2023-12-07T09:15:06;18;;17;;;;;;;
82350;SPS30;71951;39.366;22.950;2023-12-07T09:18:34;16;;16;;;;;;;
82350;SPS30;71951;39.366;22.950;2023-12-07T09:22:00;18;;17;;;;;;;
82350;SPS30;71951;39.366;22.950;2023-12-07T09:25:27;22;;21;;;;;;;
82350;SPS30;71951;39.366;22.950;2023-12-07T09:28:53;23;;22;;;;;;;
82350;SPS30;71951;39.366;22.950;2023-12-07T09:32:20;25;;24;;;;;;;
82350;SPS30;71951;39.366;22.950;2023-12-07T09:35:46;27;;25;;;;;;;
82350;SPS30;71951;39.366;22.950;2023-12-07T09:39:13;26;;25;;;;;;;
82350;SPS30;71951;39.366;22.950;2023-12-07T09:42:40;27;;26;;;;;;;
82350;SPS30;71951;39.366;22.950;2023-12-07T09:46:06;29;;27;;;;;;;
82350;SPS30;71951;39.366;22.950;2023-12-07T09:49:33;31;;30;;;;;;;
82350;SPS30;71951;39.366;22.950;2023-12-07T09:53:00;34;;32;;;;;;;
82350;SPS30;71951;39.366;22.950;2023-12-07T09:56:26;33;;31;;;;;;;
82350;SPS30;71951;39.366;22.950;2023-12-07T09:59:53;30;;29;;;;;;;
82350;SPS30;71951;39.366;22.950;2023-12-07T10:03:20;29;;28;;;;;;;
82350;SPS30;71951;39.366;22.950;2023-12-07T10:06:47;30;;29;;;;;;;
82350;SPS30;71951;39.366;22.950;2023-12-07T10:10:14;30;;29;;;;;;;
82350;SPS30;71951;39.366;22.950;2023-12-07T10:13:41;26;;26;;;;;;;
82350;SPS30;71951;39.366;22.950;2023-12-07T10:17:07;26;;25;;;;;;;
82350;SPS30;71951;39.366;22.950;2023-12-07T10:20:34;27;;26;;;;;;;
82350;SPS30;71951;39.366;22.950;2023-12-07T10:24:00;29;;28;;;;;;;
82350;SPS30;71951;39.366;22.950;2023-12-07T10:27:27;25;;24;;;;;;;
82350;SPS30;71951;39.366;22.950;2023-12-07T10:30:56;24;;24;;;;;;;
82350;SPS30;71951;39.366;22.950;2023-12-07T10:34:23;25;;24;;;;;;;
82350;SPS30;71951;39.366;22.950;2023-12-07T10:37:49;24;;23;;;;;;;
82350;SPS30;71951;39.366;22.950;2023-12-07T10:41:16;21;;19;;;;;;;
82350;SPS30;71951;39.366;22.950;2023-12-07T10:44:45;21;;20;;;;;;;
82350;SPS30;71951;39.366;22.950;2023-12-07T10:48:16;18;;18;;;;;;;
82350;SPS30;71951;39.366;22.950;2023-12-07T10:51:45;18;;18;;;;;;;
82350;SPS30;71951;39.366;22.950;2023-12-07T10:55:17;17;;17;;;;;;;
82350;SPS30;71951;39.366;22.950;2023-12-07T10:58:46;17;;17;;;;;;;
82350;SPS30;71951;39.366;22.950;2023-12-07T11:02:15;14;;14;;;;;;;
82350;SPS30;71951;39.366;22.950;2023-12-07T11:05:43;10;;10;;;;;;;
82350;SPS30;71951;39.366;22.950;2023-12-07T11:09:12;11;;11;;;;;;;
82350;SPS30;71951;39.366;22.950;2023-12-07T11:12:43;9;;9;;;;;;;
82350;SPS30;71951;39.366;22.950;2023-12-07T11:16:15;8;;8;;;;;;;
82350;SPS30;71951;39.366;22.950;2023-12-07T11:19:43;6;;6;;;;;;;
82350;SPS30;71951;39.366;22.950;2023-12-07T11:23:10;5;;5;;;;;;;
82350;SPS30;71951;39.366;22.950;2023-12-07T11:26:37;9;;9;;;;;;;
82350;SPS30;71951;39.366;22.950;2023-12-07T11:30:03;6;;6;;;;;;;
82350;SPS30;71951;39.366;22.950;2023-12-07T11:33:30;6;;6;;;;;;;
82350;SPS30;71951;39.366;22.950;2023-12-07T11:36:57;7;;7;;;;;;;
82350;SPS30;71951;39.366;22.950;2023-12-07T11:40:24;7;;7;;;;;;;
82350;SPS30;71951;39.366;22.950;2023-12-07T11:43:50;8;;8;;;;;;;
82350;SPS30;71951;39.366;22.950;2023-12-07T11:47:17;8;;8;;;;;;;
82350;SPS30;71951;39.366;22.950;2023-12-07T11:50:53;8;;8;;;;;;;
82350;SPS30;71951;39.366;22.950;2023-12-07T11:54:22;7;;7;;;;;;;
82350;SPS30;71951;39.366;22.950;2023-12-07T11:57:48;6;;6;;;;;;;
82350;SPS30;71951;39.366;22.950;2023-12-07T12:01:16;7;;7;;;;;;;
82350;SPS30;71951;39.366;22.950;2023-12-07T12:04:43;7;;7;;;;;;;
82350;SPS30;71951;39.366;22.950;2023-12-07T12:08:09;7;;7;;;;;;;
82350;SPS30;71951;39.366;22.950;2023-12-07T12:11:36;7;;7;;;;;;;
82350;SPS30;71951;39.366;22.950;2023-12-07T12:15:03;7;;7;;;;;;;
82350;SPS30;71951;39.366;22.950;2023-12-07T12:18:30;8;;8;;;;;;;
82350;SPS30;71951;39.366;22.950;2023-12-07T12:21:57;5;;5;;;;;;;
82350;SPS30;71951;39.366;22.950;2023-12-07T12:25:24;4;;4;;;;;;;
82350;SPS30;71951;39.366;22.950;2023-12-07T12:28:52;5;;5;;;;;;;
82350;SPS30;71951;39.366;22.950;2023-12-07T12:32:18;4;;4;;;;;;;
82350;SPS30;71951;39.366;22.950;2023-12-07T12:35:45;6;;5;;;;;;;
82350;SPS30;71951;39.366;22.950;2023-12-07T12:39:12;4;;4;;;;;;;
82350;SPS30;71951;39.366;22.950;2023-12-07T12:42:38;4;;4;;;;;;;
82350;SPS30;71951;39.366;22.950;2023-12-07T12:46:05;5;;5;;;;;;;
82350;SPS30;71951;39.366;22.950;2023-12-07T12:49:35;4;;4;;;;;;;
82350;SPS30;71951;39.366;22.950;2023-12-07T12:53:03;6;;6;;;;;;;
82350;SPS30;71951;39.366;22.950;2023-12-07T12:56:30;12;;12;;;;;;;
82350;SPS30;71951;39.366;22.950;2023-12-07T12:59:57;5;;5;;;;;;;
82350;SPS30;71951;39.366;22.950;2023-12-07T13:03:26;4;;4;;;;;;;
82350;SPS30;71951;39.366;22.950;2023-12-07T13:06:53;3;;3;;;;;;;
82350;SPS30;71951;39.366;22.950;2023-12-07T13:10:20;3;;3;;;;;;;
82350;SPS30;71951;39.366;22.950;2023-12-07T13:13:46;3;;3;;;;;;;
82350;SPS30;71951;39.366;22.950;2023-12-07T13:17:13;3;;3;;;;;;;
82350;SPS30;71951;39.366;22.950;2023-12-07T13:20:40;3;;3;;;;;;;
82350;SPS30;71951;39.366;22.950;2023-12-07T13:24:06;4;;4;;;;;;;
82350;SPS30;71951;39.366;22.950;2023-12-07T13:27:33;5;;5;;;;;;;
82350;SPS30;71951;39.366;22.950;2023-12-07T13:31:00;5;;5;;;;;;;
82350;SPS30;71951;39.366;22.950;2023-12-07T13:34:26;4;;4;;;;;;;
82350;SPS30;71951;39.366;22.950;2023-12-07T13:37:53;3;;3;;;;;;;
82350;SPS30;71951;39.366;22.950;2023-12-07T13:41:20;4;;4;;;;;;;
82350;SPS30;71951;39.366;22.950;2023-12-07T13:44:46;5;;5;;;;;;;
82350;SPS30;71951;39.366;22.950;2023-12-07T13:48:13;2;;2;;;;;;;
82350;SPS30;71951;39.366;22.950;2023-12-07T13:51:40;3;;2;;;;;;;
82350;SPS30;71951;39.366;22.950;2023-12-07T13:55:07;3;;2;;;;;;;
82350;SPS30;71951;39.366;22.950;2023-12-07T13:58:34;3;;3;;;;;;;
82350;SPS30;71951;39.366;22.950;2023-12-07T14:02:00;3;;3;;;;;;;
82350;SPS30;71951;39.366;22.950;2023-12-07T14:05:27;3;;3;;;;;;;
82350;SPS30;71951;39.366;22.950;2023-12-07T14:08:53;3;;3;;;;;;;
82350;SPS30;71951;39.366;22.950;2023-12-07T14:12:20;2;;2;;;;;;;
82350;SPS30;71951;39.366;22.950;2023-12-07T14:15:47;2;;2;;;;;;;
82350;SPS30;71951;39.366;22.950;2023-12-07T14:19:14;3;;3;;;;;;;
82350;SPS30;71951;39.366;22.950;2023-12-07T14:22:40;4;;4;;;;;;;
82350;SPS30;71951;39.366;22.950;2023-12-07T14:26:07;3;;3;;;;;;;
82350;SPS30;71951;39.366;22.950;2023-12-07T14:29:33;3;;3;;;;;;;
82350;SPS30;71951;39.366;22.950;2023-12-07T14:33:00;3;;3;;;;;;;
82350;SPS30;71951;39.366;22.950;2023-12-07T14:36:27;4;;4;;;;;;;
82350;SPS30;71951;39.366;22.950;2023-12-07T14:39:53;5;;5;;;;;;;
82350;SPS30;71951;39.366;22.950;2023-12-07T14:43:20;5;;5;;;;;;;
82350;SPS30;71951;39.366;22.950;2023-12-07T14:46:47;5;;5;;;;;;;
82350;SPS30;71951;39.366;22.950;2023-12-07T14:50:14;7;;6;;;;;;;
82350;SPS30;71951;39.366;22.950;2023-12-07T14:53:41;6;;6;;;;;;;
82350;SPS30;71951;39.366;22.950;2023-12-07T14:57:08;6;;6;;;;;;;
82350;SPS30;71951;39.366;22.950;2023-12-07T15:00:34;5;;5;;;;;;;
82350;SPS30;71951;39.366;22.950;2023-12-07T15:04:01;6;;6;;;;;;;
82350;SPS30;71951;39.366;22.950;2023-12-07T15:07:27;6;;5;;;;;;;
82350;SPS30;71951;39.366;22.950;2023-12-07T15:10:54;8;;7;;;;;;;
82350;SPS30;71951;39.366;22.950;2023-12-07T15:14:21;9;;8;;;;;;;
82350;SPS30;71951;39.366;22.950;2023-12-07T15:17:48;11;;10;;;;;;;
82350;SPS30;71951;39.366;22.950;2023-12-07T15:21:14;10;;10;;;;;;;
82350;SPS30;71951;39.366;22.950;2023-12-07T15:24:41;11;;11;;;;;;;
82350;SPS30;71951;39.366;22.950;2023-12-07T15:28:08;32;;31;;;;;;;
82350;SPS30;71951;39.366;22.950;2023-12-07T15:31:34;28;;27;;;;;;;
82350;SPS30;71951;39.366;22.950;2023-12-07T15:35:01;25;;24;;;;;;;
82350;SPS30;71951;39.366;22.950;2023-12-07T15:38:27;32;;30;;;;;;;
82350;SPS30;71951;39.366;22.950;2023-12-07T15:41:54;38;;38;;;;;;;
82350;SPS30;71951;39.366;22.950;2023-12-07T15:45:20;40;;38;;;;;;;
82350;SPS30;71951;39.366;22.950;2023-12-07T15:48:47;39;;38;;;;;;;
82350;SPS30;71951;39.366;22.950;2023-12-07T15:52:13;39;;38;;;;;;;
82350;SPS30;71951;39.366;22.950;2023-12-07T15:55:40;42;;41;;;;;;;
82350;SPS30;71951;39.366;22.950;2023-12-07T15:59:07;50;;49;;;;;;;
82350;SPS30;71951;39.366;22.950;2023-12-07T16:02:33;49;;48;;;;;;;
82350;SPS30;71951;39.366;22.950;2023-12-07T16:06:00;56;;54;;;;;;;
82350;SPS30;71951;39.366;22.950;2023-12-07T16:09:27;57;;55;;;;;;;
82350;SPS30;71951;39.366;22.950;2023-12-07T16:12:53;60;;58;;;;;;;
82350;SPS30;71951;39.366;22.950;2023-12-07T16:16:20;56;;54;;;;;;;
82350;SPS30;71951;39.366;22.950;2023-12-07T16:19:47;54;;52;;;;;;;
82350;SPS30;71951;39.366;22.950;2023-12-07T16:23:13;62;;59;;;;;;;
82350;SPS30;71951;39.366;22.950;2023-12-07T16:26:40;69;;66;;;;;;;
82350;SPS30;71951;39.366;22.950;2023-12-07T16:30:07;69;;66;;;;;;;
82350;SPS30;71951;39.366;22.950;2023-12-07T16:33:34;69;;66;;;;;;;
82350;SPS30;71951;39.366;22.950;2023-12-07T16:37:03;67;;65;;;;;;;
82350;SPS30;71951;39.366;22.950;2023-12-07T16:40:30;71;;68;;;;;;;
82350;SPS30;71951;39.366;22.950;2023-12-07T16:43:57;60;;58;;;;;;;
82350;SPS30;71951;39.366;22.950;2023-12-07T16:47:24;62;;61;;;;;;;
82350;SPS30;71951;39.366;22.950;2023-12-07T16:50:50;81;;78;;;;;;;
82350;SPS30;71951;39.366;22.950;2023-12-07T16:54:17;78;;76;;;;;;;
82350;SPS30;71951;39.366;22.950;2023-12-07T16:57:43;73;;70;;;;;;;
82350;SPS30;71951;39.366;22.950;2023-12-07T17:01:10;76;;73;;;;;;;
82350;SPS30;71951;39.366;22.950;2023-12-07T17:04:36;82;;79;;;;;;;
82350;SPS30;71951;39.366;22.950;2023-12-07T17:08:03;78;;74;;;;;;;
82350;SPS30;71951;39.366;22.950;2023-12-07T17:11:29;78;;74;;;;;;;
82350;SPS30;71951;39.366;22.950;2023-12-07T17:14:56;86;;83;;;;;;;
82350;SPS30;71951;39.366;22.950;2023-12-07T17:18:23;99;;95;;;;;;;
82350;SPS30;71951;39.366;22.950;2023-12-07T17:21:49;85;;83;;;;;;;
82350;SPS30;71951;39.366;22.950;2023-12-07T17:25:17;65;;63;;;;;;;
82350;SPS30;71951;39.366;22.950;2023-12-07T17:28:43;42;;41;;;;;;;
82350;SPS30;71951;39.366;22.950;2023-12-07T17:32:10;28;;27;;;;;;;
82350;SPS30;71951;39.366;22.950;2023-12-07T17:35:36;30;;29;;;;;;;
82350;SPS30;71951;39.366;22.950;2023-12-07T17:39:03;26;;26;;;;;;;
82350;SPS30;71951;39.366;22.950;2023-12-07T17:42:30;22;;21;;;;;;;
82350;SPS30;71951;39.366;22.950;2023-12-07T17:45:56;17;;17;;;;;;;
82350;SPS30;71951;39.366;22.950;2023-12-07T17:49:23;15;;15;;;;;;;
82350;SPS30;71951;39.366;22.950;2023-12-07T17:52:49;15;;15;;;;;;;
82350;SPS30;71951;39.366;22.950;2023-12-07T17:56:16;17;;16;;;;;;;
82350;SPS30;71951;39.366;22.950;2023-12-07T17:59:42;17;;17;;;;;;;
82350;SPS30;71951;39.366;22.950;2023-12-07T18:03:09;13;;13;;;;;;;
82350;SPS30;71951;39.366;22.950;2023-12-07T18:06:35;18;;17;;;;;;;
82350;SPS30;71951;39.366;22.950;2023-12-07T18:10:02;16;;16;;;;;;;
82350;SPS30;71951;39.366;22.950;2023-12-07T18:13:29;18;;18;;;;;;;
82350;SPS30;71951;39.366;22.950;2023-12-07T18:16:56;38;;37;;;;;;;
82350;SPS30;71951;39.366;22.950;2023-12-07T18:20:23;30;;29;;;;;;;
82350;SPS30;71951;39.366;22.950;2023-12-07T18:23:49;23;;21;;;;;;;
82350;SPS30;71951;39.366;22.950;2023-12-07T18:27:16;16;;15;;;;;;;
82350;SPS30;71951;39.366;22.950;2023-12-07T18:30:43;19;;19;;;;;;;
82350;SPS30;71951;39.366;22.950;2023-12-07T18:34:09;22;;21;;;;;;;
82350;SPS30;71951;39.366;22.950;2023-12-07T18:37:36;22;;21;;;;;;;
82350;SPS30;71951;39.366;22.950;2023-12-07T18:41:03;22;;21;;;;;;;
82350;SPS30;71951;39.366;22.950;2023-12-07T18:44:29;20;;20;;;;;;;
82350;SPS30;71951;39.366;22.950;2023-12-07T18:47:56;19;;18;;;;;;;
82350;SPS30;71951;39.366;22.950;2023-12-07T18:51:23;17;;17;;;;;;;
82350;SPS30;71951;39.366;22.950;2023-12-07T18:54:49;18;;18;;;;;;;
82350;SPS30;71951;39.366;22.950;2023-12-07T18:58:16;21;;20;;;;;;;
82350;SPS30;71951;39.366;22.950;2023-12-07T19:01:42;21;;20;;;;;;;
82350;SPS30;71951;39.366;22.950;2023-12-07T19:05:09;19;;19;;;;;;;
82350;SPS30;71951;39.366;22.950;2023-12-07T19:08:36;20;;19;;;;;;;
82350;SPS30;71951;39.366;22.950;2023-12-07T19:12:03;20;;20;;;;;;;
82350;SPS30;71951;39.366;22.950;2023-12-07T19:15:30;22;;21;;;;;;;
82350;SPS30;71951;39.366;22.950;2023-12-07T19:18:56;20;;20;;;;;;;
82350;SPS30;71951;39.366;22.950;2023-12-07T19:22:23;17;;17;;;;;;;
82350;SPS30;71951;39.366;22.950;2023-12-07T19:25:50;23;;22;;;;;;;
